createdAt,value
2023-03-26T00:02:54.163Z,99865.44
2023-03-26T00:06:14.553Z,99868.53
2023-03-26T00:09:17.872Z,99867.81
2023-03-26T00:12:24.641Z,99862.97
2023-03-26T00:15:26.913Z,99866.53
2023-03-26T00:18:35.008Z,99870.03
2023-03-26T00:21:39.934Z,99857.22
2023-03-26T00:24:46.000Z,99852.84
2023-03-26T00:27:49.915Z,99859.69
2023-03-26T00:31:01.109Z,99849.88
2023-03-26T00:34:05.834Z,99856.97
2023-03-26T00:37:08.873Z,99855.44
2023-03-26T00:40:11.737Z,99856.13
2023-03-26T00:43:20.422Z,99860.16
2023-03-26T00:46:29.115Z,99851.97
2023-03-26T00:49:32.057Z,99849.50
2023-03-26T00:52:39.172Z,99848.56
2023-03-26T00:55:45.864Z,99862.16
2023-03-26T00:58:50.924Z,99843.72
2023-03-26T01:01:55.153Z,99842.38
2023-03-26T01:05:02.846Z,99825.13
2023-03-26T01:08:33.295Z,99837.44
2023-03-26T01:11:36.008Z,99844.88
2023-03-26T01:14:39.030Z,99837.19
2023-03-26T01:17:44.582Z,99842.97
2023-03-26T01:20:51.023Z,99853.41
2023-03-26T01:24:07.085Z,99858.69
2023-03-26T01:27:39.056Z,99842.94
2023-03-26T01:31:25.224Z,99849.06
2023-03-26T01:34:41.361Z,99840.88
2023-03-26T01:37:59.940Z,99845.81
2023-03-26T01:41:21.003Z,99854.88
2023-03-26T01:44:29.655Z,99863.97
2023-03-26T01:47:32.961Z,99861.34
2023-03-26T01:50:37.591Z,99862.63
2023-03-26T01:53:47.154Z,99845.56
2023-03-26T01:56:58.640Z,99850.03
2023-03-26T02:00:31.559Z,99838.88
2023-03-26T02:03:46.852Z,99848.75
2023-03-26T02:07:20.936Z,99864.28
2023-03-26T02:10:28.604Z,99857.09
2023-03-26T02:13:31.298Z,99850.97
2023-03-26T02:16:34.034Z,99858.03
2023-03-26T02:19:41.945Z,99870.47
2023-03-26T02:22:48.356Z,99852.13
2023-03-26T02:25:53.694Z,99854.41
2023-03-26T02:28:58.956Z,99862.91
2023-03-26T02:32:02.277Z,99854.97
2023-03-26T02:35:05.483Z,99849.91
2023-03-26T02:38:10.537Z,99851.19
2023-03-26T02:41:17.107Z,99846.13
2023-03-26T02:44:40.202Z,99840.53
2023-03-26T02:47:54.476Z,99842.44
2023-03-26T02:51:28.388Z,99837.09
2023-03-26T02:54:39.630Z,99844.34
2023-03-26T02:58:08.111Z,99838.59
2023-03-26T03:01:18.547Z,99840.16
2023-03-26T03:04:30.399Z,99835.78
2023-03-26T03:07:38.685Z,99848.88
2023-03-26T03:11:01.151Z,99841.44
2023-03-26T03:14:14.789Z,99847.34
2023-03-26T03:17:17.604Z,99841.97
2023-03-26T03:20:22.034Z,99837.69
2023-03-26T03:23:24.351Z,99857.56
2023-03-26T03:26:31.889Z,99853.50
2023-03-26T03:29:43.742Z,99861.88
2023-03-26T03:33:13.471Z,99833.94
2023-03-26T03:36:27.986Z,99847.75
2023-03-26T03:39:40.558Z,99843.47
2023-03-26T03:42:51.093Z,99845.75
2023-03-26T03:46:05.853Z,99852.84
2023-03-26T03:49:16.616Z,99864.59
2023-03-26T03:52:21.627Z,99871.84
2023-03-26T03:55:24.211Z,99875.69
2023-03-26T03:58:31.056Z,99861.38
2023-03-26T04:01:43.296Z,99863.09
2023-03-26T04:05:06.477Z,99871.56
2023-03-26T04:08:13.764Z,99871.25
2023-03-26T04:11:23.178Z,99875.47
2023-03-26T04:14:51.197Z,99875.69
2023-03-26T04:17:58.303Z,99868.66
2023-03-26T04:21:03.242Z,99872.84
2023-03-26T04:24:07.260Z,99882.03
2023-03-26T04:27:37.378Z,99863.53
2023-03-26T04:31:24.387Z,99858.84
2023-03-26T04:34:31.059Z,99859.13
2023-03-26T04:37:49.093Z,99865.31
2023-03-26T04:41:17.408Z,99872.22
2023-03-26T04:44:28.061Z,99871.69
2023-03-26T04:47:39.922Z,99876.34
2023-03-26T04:50:46.289Z,99867.81
2023-03-26T04:53:56.507Z,99882.97
2023-03-26T04:57:09.458Z,99871.97
2023-03-26T05:00:25.523Z,99883.59
2023-03-26T05:03:32.558Z,99875.06
2023-03-26T05:06:41.852Z,99875.19
2023-03-26T05:09:53.826Z,99852.59
2023-03-26T05:13:09.425Z,99854.94
2023-03-26T05:16:14.533Z,99853.88
2023-03-26T05:19:23.249Z,99857.81
2023-03-26T05:22:30.510Z,99861.34
2023-03-26T05:25:58.478Z,99870.94
2023-03-26T05:29:03.060Z,99868.91
2023-03-26T05:32:32.920Z,99858.50
2023-03-26T05:35:37.720Z,99857.59
2023-03-26T05:38:47.692Z,99858.13
2023-03-26T05:41:56.854Z,99851.50
2023-03-26T05:45:11.460Z,99854.06
2023-03-26T05:48:13.745Z,99863.25
2023-03-26T05:51:20.936Z,99862.16
2023-03-26T05:54:34.721Z,99858.31
2023-03-26T05:57:57.487Z,99860.56
2023-03-26T06:01:29.394Z,99853.13
2023-03-26T06:05:04.403Z,99853.66
2023-03-26T06:08:25.834Z,99855.06
2023-03-26T06:11:29.020Z,99855.16
2023-03-26T06:14:31.901Z,99849.78
2023-03-26T06:17:44.602Z,99846.44
2023-03-26T06:21:07.599Z,99839.41
2023-03-26T06:24:21.882Z,99838.06
2023-03-26T06:27:45.457Z,99840.72
2023-03-26T06:31:08.906Z,99845.00
2023-03-26T06:34:29.365Z,99840.69
2023-03-26T06:37:36.701Z,99841.22
2023-03-26T06:40:41.495Z,99838.66
2023-03-26T06:44:11.196Z,99826.19
2023-03-26T06:47:31.859Z,99839.66
2023-03-26T06:50:43.061Z,99830.44
2023-03-26T06:53:59.582Z,99835.94
2023-03-26T06:57:22.022Z,99837.25
2023-03-26T07:00:45.441Z,99831.84
2023-03-26T07:04:09.255Z,99811.94
2023-03-26T07:07:30.633Z,99814.94
2023-03-26T07:10:53.546Z,99815.13
2023-03-26T07:14:14.702Z,99812.56
2023-03-26T07:17:19.757Z,99819.50
2023-03-26T07:20:31.547Z,99805.06
2023-03-26T07:23:34.227Z,99820.72
2023-03-26T07:27:35.420Z,99829.56
2023-03-26T07:31:07.063Z,99836.53
2023-03-26T07:34:35.263Z,99832.66
2023-03-26T07:38:14.609Z,99834.81
2023-03-26T07:41:49.334Z,99834.22
2023-03-26T07:45:19.741Z,99841.88
2023-03-26T07:48:51.412Z,99823.47
2023-03-26T07:52:11.745Z,99832.47
2023-03-26T07:56:11.878Z,99844.53
2023-03-26T07:59:29.769Z,99843.31
2023-03-26T08:03:07.404Z,99845.31
2023-03-26T08:06:36.175Z,99843.00
2023-03-26T08:10:08.607Z,99834.84
2023-03-26T08:13:34.771Z,99843.78
2023-03-26T08:16:58.050Z,99831.75
2023-03-26T08:20:23.150Z,99828.06
2023-03-26T08:24:05.400Z,99841.41
2023-03-26T08:27:16.130Z,99821.44
2023-03-26T08:30:28.232Z,99828.09
2023-03-26T08:33:31.164Z,99831.09
2023-03-26T08:36:37.611Z,99825.66
2023-03-26T08:39:42.087Z,99827.56
2023-03-26T08:43:04.479Z,99829.47
2023-03-26T08:46:15.930Z,99831.69
2023-03-26T08:49:55.935Z,99822.34
2023-03-26T08:53:35.640Z,99825.63
2023-03-26T08:57:15.840Z,99822.31
2023-03-26T09:00:42.636Z,99821.25
2023-03-26T09:04:03.896Z,99820.34
2023-03-26T09:07:36.769Z,99811.50
2023-03-26T09:10:51.965Z,99804.28
2023-03-26T09:14:04.788Z,99797.19
2023-03-26T09:17:25.376Z,99799.19
2023-03-26T09:21:09.060Z,99806.09
2023-03-26T09:24:27.731Z,99797.25
2023-03-26T09:27:38.386Z,99791.84
2023-03-26T09:31:02.375Z,99792.19
2023-03-26T09:34:29.935Z,99780.78
2023-03-26T09:37:35.363Z,99792.22
2023-03-26T09:41:24.850Z,99776.97
2023-03-26T09:44:57.248Z,99778.63
2023-03-26T09:48:19.786Z,99767.75
2023-03-26T09:51:26.750Z,99777.16
2023-03-26T09:54:44.412Z,99761.78
2023-03-26T09:57:58.581Z,99760.50
2023-03-26T10:01:12.946Z,99743.22
2023-03-26T10:04:46.013Z,99744.03
2023-03-26T10:08:01.579Z,99739.28
2023-03-26T10:11:19.124Z,99720.50
2023-03-26T10:14:40.781Z,99721.94
2023-03-26T10:18:29.255Z,99727.31
2023-03-26T10:22:25.982Z,99721.16
2023-03-26T10:25:47.248Z,99725.28
2023-03-26T10:29:18.614Z,99726.47
2023-03-26T10:32:45.815Z,99732.50
2023-03-26T10:36:17.897Z,99747.59
2023-03-26T10:39:36.624Z,99767.91
2023-03-26T10:42:59.717Z,99764.75
2023-03-26T10:46:19.513Z,99734.03
2023-03-26T10:49:55.985Z,99728.13
2023-03-26T10:53:37.459Z,99722.75
2023-03-26T10:56:45.392Z,99714.56
2023-03-26T10:59:47.704Z,99698.97
2023-03-26T11:03:08.600Z,99687.69
2023-03-26T11:06:33.360Z,99681.06
2023-03-26T11:10:07.182Z,99671.72
2023-03-26T11:13:44.673Z,99676.66
2023-03-26T11:17:40.072Z,99664.31
2023-03-26T11:21:19.207Z,99655.28
2023-03-26T11:24:40.353Z,99647.31
2023-03-26T11:28:09.384Z,99647.00
2023-03-26T11:31:23.048Z,99640.91
2023-03-26T11:34:33.851Z,99617.59
2023-03-26T11:37:41.635Z,99618.94
2023-03-26T11:40:51.490Z,99618.38
2023-03-26T11:44:23.406Z,99604.59
2023-03-26T11:47:35.853Z,99605.06
2023-03-26T11:50:44.992Z,99598.13
2023-03-26T11:53:49.501Z,99592.31
2023-03-26T11:57:07.243Z,99585.22
2023-03-26T12:00:21.146Z,99578.06
2023-03-26T12:03:26.314Z,99573.13
2023-03-26T12:06:33.156Z,99563.19
2023-03-26T12:09:35.466Z,99543.88
2023-03-26T12:12:42.204Z,99542.91
2023-03-26T12:15:44.792Z,99534.94
2023-03-26T12:19:08.392Z,99532.41
2023-03-26T12:22:32.950Z,99522.94
2023-03-26T12:25:38.706Z,99524.41
2023-03-26T12:28:51.175Z,99511.72
2023-03-26T12:32:07.733Z,99507.88
2023-03-26T12:35:20.439Z,99504.50
2023-03-26T12:38:35.846Z,99487.38
2023-03-26T12:44:42.967Z,99486.34
2023-03-26T12:45:07.684Z,99479.50
2023-03-26T12:48:15.855Z,99460.72
2023-03-26T12:51:31.232Z,99468.66
2023-03-26T12:54:58.459Z,99458.09
2023-03-26T12:58:15.926Z,99445.94
2023-03-26T13:01:46.832Z,99451.75
2023-03-26T13:05:06.041Z,99444.28
2023-03-26T13:08:49.723Z,99448.59
2023-03-26T13:12:17.426Z,99429.31
2023-03-26T13:15:55.664Z,99419.09
2023-03-26T13:19:10.816Z,99407.63
2023-03-26T13:22:55.422Z,99403.69
2023-03-26T13:26:10.489Z,99395.00
2023-03-26T13:29:35.015Z,99385.22
2023-03-26T13:32:59.066Z,99384.97
2023-03-26T13:36:21.809Z,99389.66
2023-03-26T13:39:42.330Z,99376.72
2023-03-26T13:42:50.643Z,99383.00
2023-03-26T13:46:20.720Z,99376.94
2023-03-26T13:49:37.380Z,99377.94
2023-03-26T13:52:56.059Z,99369.94
2023-03-26T13:56:02.516Z,99363.56
2023-03-26T13:59:31.434Z,99354.72
2023-03-26T14:02:41.322Z,99343.88
2023-03-26T14:05:48.293Z,99332.69
2023-03-26T14:09:31.487Z,99331.00
2023-03-26T14:13:07.960Z,99324.25
2023-03-26T14:16:29.460Z,99311.75
2023-03-26T14:20:18.218Z,99312.16
2023-03-26T14:23:52.149Z,99310.38
2023-03-26T14:27:13.043Z,99309.03
2023-03-26T14:30:33.739Z,99302.63
2023-03-26T14:33:51.102Z,99293.47
2023-03-26T14:37:18.966Z,99283.19
2023-03-26T14:40:48.652Z,99290.50
2023-03-26T14:44:47.727Z,99289.91
2023-03-26T14:48:25.894Z,99281.78
2023-03-26T14:51:34.505Z,99278.66
2023-03-26T14:54:42.922Z,99263.88
2023-03-26T14:58:22.295Z,99274.06
2023-03-26T15:01:56.553Z,99260.59
2023-03-26T15:05:17.073Z,99252.72
2023-03-26T15:08:33.960Z,99247.84
2023-03-26T15:12:21.394Z,99238.81
2023-03-26T15:16:04.430Z,99237.75
2023-03-26T15:19:15.039Z,99234.47
2023-03-26T15:22:40.594Z,99232.78
2023-03-26T15:26:20.020Z,99218.31
2023-03-26T15:29:43.586Z,99218.00
2023-03-26T15:33:03.877Z,99205.81
2023-03-26T15:36:32.573Z,99200.09
2023-03-26T15:40:31.728Z,99207.97
2023-03-26T15:44:24.786Z,99211.47
2023-03-26T15:47:42.129Z,99213.25
2023-03-26T15:50:56.729Z,99209.66
2023-03-26T15:54:16.621Z,99202.91
2023-03-26T15:57:31.792Z,99203.53
2023-03-26T16:00:51.998Z,99187.66
2023-03-26T16:04:12.976Z,99182.06
2023-03-26T16:07:21.860Z,99179.09
2023-03-26T16:10:31.468Z,99175.59
2023-03-26T16:13:46.047Z,99173.84
2023-03-26T16:16:54.781Z,99155.00
2023-03-26T16:20:16.262Z,99143.47
2023-03-26T16:23:31.972Z,99142.47
2023-03-26T16:26:52.306Z,99139.13
2023-03-26T16:30:02.734Z,99135.38
2023-03-26T16:33:15.689Z,99128.91
2023-03-26T16:36:18.590Z,99137.78
2023-03-26T16:39:38.233Z,99134.03
2023-03-26T16:42:46.840Z,99135.81
2023-03-26T16:45:59.485Z,99144.09
2023-03-26T16:49:13.341Z,99141.16
2023-03-26T16:52:23.648Z,99142.59
2023-03-26T16:55:43.492Z,99145.91
2023-03-26T16:58:56.282Z,99142.72
2023-03-26T17:02:22.120Z,99139.25
2023-03-26T17:05:36.835Z,99144.41
2023-03-26T17:09:21.490Z,99133.59
2023-03-26T17:13:15.919Z,99133.59
2023-03-26T17:16:31.204Z,99141.56
2023-03-26T17:19:54.369Z,99143.56
2023-03-26T17:22:59.460Z,99149.06
2023-03-26T17:26:32.330Z,99145.81
2023-03-26T17:30:08.520Z,99150.25
2023-03-26T17:33:29.142Z,99146.97
2023-03-26T17:36:41.232Z,99148.63
2023-03-26T17:39:46.798Z,99145.91
2023-03-26T17:43:11.535Z,99147.06
2023-03-26T17:46:44.765Z,99145.41
2023-03-26T17:49:55.425Z,99142.94
2023-03-26T17:53:00.495Z,99129.53
2023-03-26T17:56:14.278Z,99143.50
2023-03-26T17:59:25.192Z,99143.47
2023-03-26T18:02:42.253Z,99142.13
2023-03-26T18:05:46.120Z,99135.81
2023-03-26T18:09:12.811Z,99150.91
2023-03-26T18:12:55.796Z,99143.75
2023-03-26T18:16:01.303Z,99151.72
2023-03-26T18:19:19.058Z,99138.31
2023-03-26T18:22:31.384Z,99132.56
2023-03-26T18:25:34.171Z,99132.31
2023-03-26T18:28:44.755Z,99133.97
2023-03-26T18:31:53.292Z,99138.31
2023-03-26T18:35:13.469Z,99122.72
2023-03-26T18:38:36.175Z,99115.97
2023-03-26T18:41:42.726Z,99115.63
2023-03-26T18:44:49.061Z,99108.00
2023-03-26T18:48:09.999Z,99104.44
2023-03-26T18:51:12.779Z,99106.38
2023-03-26T18:54:24.159Z,99098.41
2023-03-26T18:57:29.813Z,99092.41
2023-03-26T19:00:32.290Z,99077.59
2023-03-26T19:03:37.338Z,99074.31
2023-03-26T19:06:41.827Z,99075.69
2023-03-26T19:09:44.755Z,99060.91
2023-03-26T19:12:55.574Z,99072.13
2023-03-26T19:15:59.104Z,99072.19
2023-03-26T19:19:05.289Z,99064.03
2023-03-26T19:22:13.942Z,99064.63
2023-03-26T19:25:26.681Z,99057.22
2023-03-26T19:28:35.991Z,99044.41
2023-03-26T19:31:42.400Z,99041.94
2023-03-26T19:34:47.143Z,99057.84
2023-03-26T19:37:54.176Z,99038.97
2023-03-26T19:40:58.109Z,99028.50
2023-03-26T19:44:03.428Z,99025.22
2023-03-26T19:47:14.981Z,99018.09
2023-03-26T19:50:23.449Z,99016.25
2023-03-26T19:53:43.604Z,99013.25
2023-03-26T19:56:48.230Z,99000.09
2023-03-26T19:59:53.063Z,98988.66
2023-03-26T20:02:55.877Z,98981.53
2023-03-26T20:05:58.381Z,98983.72
2023-03-26T20:09:04.201Z,98966.25
2023-03-26T20:12:06.538Z,98955.84
2023-03-26T20:15:25.847Z,98955.28
2023-03-26T20:18:30.022Z,98953.66
2023-03-26T20:21:35.348Z,98946.00
2023-03-26T20:24:37.643Z,98938.88
2023-03-26T20:27:40.577Z,98919.75
2023-03-26T20:30:42.883Z,98921.41
2023-03-26T20:33:47.972Z,98917.56
2023-03-26T20:36:57.041Z,98914.84
2023-03-26T20:40:07.034Z,98921.41
2023-03-26T20:43:12.496Z,98923.00
2023-03-26T20:46:20.208Z,98903.81
2023-03-26T20:49:22.496Z,98909.84
2023-03-26T20:52:25.611Z,98897.28
2023-03-26T20:55:28.340Z,98906.03
2023-03-26T20:58:32.434Z,98901.09
2023-03-26T21:01:34.873Z,98892.41
2023-03-26T21:04:37.210Z,98901.16
2023-03-26T21:07:44.698Z,98886.38
2023-03-26T21:10:47.625Z,98881.13
2023-03-26T21:14:01.053Z,98884.19
2023-03-26T21:17:03.698Z,98885.84
2023-03-26T21:20:13.458Z,98880.97
2023-03-26T21:23:40.680Z,98868.66
2023-03-26T21:26:53.747Z,98877.13
2023-03-26T21:29:58.339Z,98886.66
2023-03-26T21:33:05.247Z,98909.97
2023-03-26T21:36:10.859Z,98914.91
2023-03-26T21:39:13.361Z,98922.03
2023-03-26T21:42:22.580Z,98924.81
2023-03-26T21:45:25.395Z,98928.63
2023-03-26T21:48:29.359Z,98921.03
2023-03-26T21:51:32.105Z,98923.50
2023-03-26T21:54:37.930Z,98934.97
2023-03-26T21:57:51.675Z,98924.88
2023-03-26T22:00:56.964Z,98925.41
2023-03-26T22:04:18.036Z,98921.59
2023-03-26T22:07:30.692Z,98920.75
2023-03-26T22:10:35.571Z,98917.47
2023-03-26T22:13:39.000Z,98912.28
2023-03-26T22:16:41.716Z,98892.63
2023-03-26T22:19:44.017Z,98895.09
2023-03-26T22:22:53.185Z,98895.91
2023-03-26T22:25:56.086Z,98894.81
2023-03-26T22:28:58.712Z,98890.44
2023-03-26T22:32:03.796Z,98898.63
2023-03-26T22:35:09.400Z,98897.03
2023-03-26T22:38:11.851Z,98902.47
2023-03-26T22:41:16.424Z,98890.44
2023-03-26T22:44:27.092Z,98894.78
2023-03-26T22:47:30.573Z,98881.94
2023-03-26T22:50:35.145Z,98877.84
2023-03-26T22:53:39.663Z,98873.19
2023-03-26T22:56:42.065Z,98867.69
2023-03-26T22:59:46.525Z,98855.94
2023-03-26T23:02:51.168Z,98860.81
2023-03-26T23:06:01.824Z,98857.00
2023-03-26T23:09:07.062Z,98847.94
2023-03-26T23:12:09.343Z,98862.16
2023-03-26T23:15:14.127Z,98849.84
2023-03-26T23:18:17.405Z,98839.72
2023-03-26T23:21:22.486Z,98842.22
2023-03-26T23:24:26.591Z,98842.78
2023-03-26T23:27:32.941Z,98835.66
2023-03-26T23:30:37.423Z,98831.31
2023-03-26T23:33:45.911Z,98821.44
2023-03-26T23:36:49.261Z,98831.50
2023-03-26T23:39:55.111Z,98820.84
2023-03-26T23:42:57.301Z,98819.75
2023-03-26T23:45:59.658Z,98803.91
2023-03-26T23:49:10.261Z,98797.13
2023-03-26T23:52:12.523Z,98786.44
2023-03-26T23:55:17.478Z,98776.06
2023-03-26T23:58:23.151Z,98779.34
